Time;durP1;ratioP1;P1;durP2;ratioP2;P2;SDS_P1;SDS_P2;PMS_P1;PMS_P2;Temp;Humidity;BMP_temperature;BMP_pressure;BME280_temperature;BME280_humidity;BME280_pressure;Samples;Min_cycle;Max_cycle;Signal;HPM_P1;HPM_P2
2023/08/25 00:00:09;;;;;;;0.70;0.70;;;;;;;21.58;68.90;99443.88;5094518;28;20488;-63
2023/08/25 00:02:41;;;;;;;1.23;1.02;;;;;;;21.57;68.95;99432.66;5094563;28;20048;-62
2023/08/25 00:05:10;;;;;;;0.73;0.73;;;;;;;21.52;69.01;99436.41;5094639;28;20059;-62
2023/08/25 00:07:39;;;;;;;0.80;0.77;;;;;;;21.42;69.17;99443.81;5094505;28;20113;-62
2023/08/25 00:10:09;;;;;;;1.40;0.85;;;;;;;21.46;69.41;99445.34;5094304;28;20544;-62
2023/08/25 00:12:38;;;;;;;1.05;0.95;;;;;;;21.48;69.14;99451.28;5094297;28;20044;-62
2023/08/25 00:15:10;;;;;;;1.80;1.13;;;;;;;21.53;68.71;99461.44;5094241;28;20040;-62
2023/08/25 00:17:39;;;;;;;1.90;1.10;;;;;;;21.54;68.67;99463.16;5094317;28;20424;-62
2023/08/25 00:20:12;;;;;;;1.98;1.45;;;;;;;21.48;68.33;99458.22;5093224;28;20080;-62
2023/08/25 00:22:41;;;;;;;1.73;1.27;;;;;;;21.41;68.42;99469.84;5094237;28;20052;-62
2023/08/25 00:25:10;;;;;;;1.17;1.08;;;;;;;21.46;68.46;99460.91;5094073;28;20119;-62
2023/08/25 00:27:39;;;;;;;1.38;1.13;;;;;;;21.42;68.50;99463.75;5094041;28;20036;-62
2023/08/25 00:30:11;;;;;;;5.65;1.35;;;;;;;21.43;68.51;99455.03;5094235;28;20040;-62
2023/08/25 00:32:41;;;;;;;0.80;0.77;;;;;;;21.32;68.67;99446.00;5094063;28;20048;-62
2023/08/25 00:35:10;;;;;;;2.60;0.95;;;;;;;21.27;68.54;99440.19;5093926;28;20044;-62
2023/08/25 00:37:39;;;;;;;1.25;1.17;;;;;;;21.17;69.00;99444.16;5092750;28;20088;-62
2023/08/25 00:40:10;;;;;;;0.95;0.75;;;;;;;21.23;69.04;99443.88;5092597;28;20127;-62
2023/08/25 00:42:38;;;;;;;1.88;1.50;;;;;;;21.19;68.99;99438.88;5093838;28;20044;-62
2023/08/25 00:45:08;;;;;;;3.70;1.57;;;;;;;21.24;69.09;99442.94;5092580;28;20058;-62
2023/08/25 00:47:39;;;;;;;2.33;1.55;;;;;;;21.29;69.32;99448.75;5093839;28;20717;-62
2023/08/25 00:50:11;;;;;;;1.20;1.10;;;;;;;21.33;69.15;99460.66;5093515;28;20104;-62
2023/08/25 00:52:41;;;;;;;1.23;0.90;;;;;;;21.28;68.99;99457.44;5093764;28;20512;-62
2023/08/25 00:55:11;;;;;;;1.35;1.25;;;;;;;21.26;68.84;99448.88;5093728;28;20117;-62
2023/08/25 00:57:40;;;;;;;1.13;0.82;;;;;;;21.34;68.88;99445.94;5093745;28;20064;-62
2023/08/25 01:00:11;;;;;;;0.65;0.65;;;;;;;21.31;68.78;99444.31;5093691;28;20042;-62
2023/08/25 01:02:42;;;;;;;1.10;1.00;;;;;;;21.28;68.78;99431.47;5093922;28;20048;-62
2023/08/25 01:05:11;;;;;;;0.80;0.80;;;;;;;21.27;68.79;99429.81;5092364;28;20040;-62
2023/08/25 01:07:43;;;;;;;1.88;1.35;;;;;;;21.27;68.83;99429.81;5092407;28;20042;-62
2023/08/25 01:10:13;;;;;;;1.63;1.50;;;;;;;21.25;69.01;99421.25;5093582;28;20050;-62
2023/08/25 01:12:55;;;;;;;0.73;0.73;;;;;;;21.26;68.93;99415.13;5093491;28;20044;-63
2023/08/25 01:15:30;;;;;;;0.63;0.63;;;;;;;21.27;69.22;99401.25;5092826;28;20044;-63
2023/08/25 01:18:09;;;;;;;0.70;0.70;;;;;;;21.26;69.14;99402.16;5092405;28;20142;-63
2023/08/25 01:20:39;;;;;;;0.90;0.90;;;;;;;21.28;69.27;99389.94;5093575;28;20550;-62
2023/08/25 01:23:18;;;;;;;1.00;0.90;;;;;;;21.28;69.35;99384.75;5092253;28;20486;-62
2023/08/25 01:25:49;;;;;;;1.47;1.17;;;;;;;21.31;69.49;99389.78;5092310;28;20119;-62
2023/08/25 01:28:21;;;;;;;0.70;0.68;;;;;;;21.33;69.54;99390.56;5093418;28;20059;-62
2023/08/25 01:30:50;;;;;;;1.92;1.25;;;;;;;21.32;69.15;99394.09;5093404;28;20105;-62
2023/08/25 01:33:19;;;;;;;0.80;0.80;;;;;;;21.26;69.29;99401.31;5097505;28;20082;-62
2023/08/25 01:36:03;;;;;;;0.90;0.88;;;;;;;21.15;69.44;99395.81;5097339;28;20501;-62
2023/08/25 01:38:39;;;;;;;0.80;0.75;;;;;;;21.11;69.51;99392.53;5097416;28;20419;-62
2023/08/25 01:41:16;;;;;;;1.23;1.05;;;;;;;21.08;69.85;99392.69;5097283;28;20130;-62
2023/08/25 01:43:49;;;;;;;0.77;0.75;;;;;;;21.07;69.83;99395.31;5097182;28;20040;-62
2023/08/25 01:46:19;;;;;;;2.00;1.45;;;;;;;20.99;69.76;99398.28;5097176;28;20044;-62
2023/08/25 01:48:51;;;;;;;0.95;0.63;;;;;;;20.96;69.74;99400.16;5097333;28;20566;-62
2023/08/25 01:51:20;;;;;;;0.65;0.65;;;;;;;20.86;70.10;99417.91;5097075;28;20401;-62
2023/08/25 01:53:53;;;;;;;1.02;0.85;;;;;;;20.76;70.20;99408.88;5097184;28;20105;-62
2023/08/25 01:56:25;;;;;;;1.50;0.95;;;;;;;20.73;70.21;99422.00;5097012;28;20120;-62
2023/08/25 01:58:54;;;;;;;1.20;1.00;;;;;;;20.70;70.28;99432.53;5097567;28;20051;-62
2023/08/25 02:01:25;;;;;;;1.08;0.77;;;;;;;20.66;70.30;99438.75;5095736;28;20047;-62
2023/08/25 02:03:55;;;;;;;1.48;0.77;;;;;;;20.64;70.36;99445.75;5096825;28;20064;-62
2023/08/25 02:06:26;;;;;;;1.20;1.10;;;;;;;20.67;70.40;99453.41;5096971;28;20406;-62
2023/08/25 02:08:55;;;;;;;1.48;1.23;;;;;;;20.72;70.24;99454.03;5112535;28;20043;-62
2023/08/25 02:11:26;;;;;;;1.15;0.93;;;;;;;20.76;70.12;99450.38;5095476;28;20043;-62
2023/08/25 02:13:54;;;;;;;0.60;0.60;;;;;;;20.82;69.72;99449.28;5096646;28;20044;-62
2023/08/25 02:16:24;;;;;;;1.30;1.15;;;;;;;20.86;69.69;99432.63;5096905;28;20044;-62
2023/08/25 02:18:53;;;;;;;0.82;0.82;;;;;;;20.93;69.58;99434.03;5096492;28;20127;-62
2023/08/25 02:21:23;;;;;;;0.68;0.68;;;;;;;21.03;69.45;99441.31;5096552;28;20077;-62
2023/08/25 02:23:56;;;;;;;0.73;0.73;;;;;;;21.16;69.29;99431.25;5096759;28;20048;-62
2023/08/25 02:26:27;;;;;;;1.50;1.05;;;;;;;21.18;69.12;99419.88;5096613;28;20375;-62
2023/08/25 02:28:56;;;;;;;0.82;0.82;;;;;;;21.26;68.87;99412.53;5095267;28;20102;-62
2023/08/25 02:31:27;;;;;;;0.60;0.57;;;;;;;21.27;68.55;99398.66;5096585;28;20055;-61
2023/08/25 02:33:56;;;;;;;0.75;0.75;;;;;;;21.33;68.18;99403.53;5095064;28;20565;-62
2023/08/25 02:36:25;;;;;;;0.63;0.60;;;;;;;21.40;68.21;99395.47;5094956;28;20093;-62
2023/08/25 02:38:55;;;;;;;1.40;1.20;;;;;;;21.38;67.84;99391.16;5096431;28;20048;-63
2023/08/25 02:41:26;;;;;;;1.27;1.17;;;;;;;21.46;67.79;99382.16;5096222;28;20051;-63
2023/08/25 02:43:55;;;;;;;1.80;1.20;;;;;;;21.49;67.45;99388.06;5095392;28;20044;-63
2023/08/25 02:46:25;;;;;;;4.45;1.58;;;;;;;21.51;67.87;99400.94;5096154;28;20063;-62
2023/08/25 02:48:54;;;;;;;1.25;1.10;;;;;;;21.59;67.94;99419.59;5094856;28;20036;-62
2023/08/25 02:51:23;;;;;;;1.27;1.17;;;;;;;21.61;68.35;99426.41;5094327;28;20056;-62
2023/08/25 02:53:52;;;;;;;1.08;0.85;;;;;;;21.69;68.37;99403.47;5096153;28;20066;-63
2023/08/25 02:56:21;;;;;;;1.17;0.93;;;;;;;21.67;67.63;99371.53;5094581;28;20044;-62
2023/08/25 02:58:52;;;;;;;1.20;0.80;;;;;;;21.65;67.13;99393.31;5095720;28;20036;-62
2023/08/25 03:01:21;;;;;;;1.58;1.00;;;;;;;21.64;67.44;99402.88;5094606;28;20423;-62
2023/08/25 03:03:50;;;;;;;0.50;0.50;;;;;;;21.67;67.37;99427.84;5095909;28;20143;-62
2023/08/25 03:06:22;;;;;;;1.73;1.05;;;;;;;21.63;67.39;99423.72;5096123;28;20097;-62
2023/08/25 03:08:51;;;;;;;;;;;;;;;21.64;67.26;99412.44;5095990;28;20040;-63
2023/08/25 03:11:20;;;;;;;1.10;0.93;;;;;;;21.67;67.18;99401.88;5095613;28;20011;-62
2023/08/25 03:13:52;;;;;;;1.95;0.88;;;;;;;21.65;67.63;99409.75;5095486;28;20067;-62
2023/08/25 03:16:20;;;;;;;2.38;1.30;;;;;;;21.65;67.66;99398.50;5095652;28;20514;-62
2023/08/25 03:18:49;;;;;;;0.87;0.87;;;;;;;21.62;67.57;99390.88;5095356;28;20117;-62
2023/08/25 03:21:18;;;;;;;1.92;0.95;;;;;;;21.62;67.39;99388.28;5094117;28;20044;-62
2023/08/25 03:23:47;;;;;;;1.15;1.02;;;;;;;21.66;67.58;99410.59;5094119;28;20078;-62
2023/08/25 03:26:16;;;;;;;0.88;0.82;;;;;;;21.69;67.79;99419.06;5093966;28;20531;-62
2023/08/25 03:28:46;;;;;;;0.82;0.77;;;;;;;21.67;68.38;99412.25;5095740;28;20051;-62
2023/08/25 03:31:17;;;;;;;0.73;0.70;;;;;;;21.71;68.49;99414.66;5095151;28;20051;-62
2023/08/25 03:33:46;;;;;;;1.17;1.05;;;;;;;21.69;68.59;99411.25;5094311;28;20393;-62
2023/08/25 03:36:16;;;;;;;0.60;0.60;;;;;;;21.58;68.77;99416.16;5095085;28;20130;-62
2023/08/25 03:38:45;;;;;;;0.80;0.80;;;;;;;21.59;68.76;99417.84;5095469;28;20059;-62
2023/08/25 03:41:14;;;;;;;0.60;0.60;;;;;;;21.65;68.26;99424.47;5093815;28;20043;-63
2023/08/25 03:43:46;;;;;;;1.55;1.33;;;;;;;21.64;68.39;99415.03;5095002;28;20122;-62
2023/08/25 03:46:17;;;;;;;0.55;0.55;;;;;;;21.63;68.61;99408.13;5093787;28;20038;-62
2023/08/25 03:48:46;;;;;;;0.98;0.80;;;;;;;21.62;68.22;99393.50;5093684;28;20036;-62
2023/08/25 03:51:16;;;;;;;0.70;0.70;;;;;;;21.64;67.98;99392.50;5094482;28;20506;-62
2023/08/25 03:53:45;;;;;;;1.77;1.40;;;;;;;21.62;67.67;99389.09;5093504;28;20043;-62
2023/08/25 03:56:14;;;;;;;0.60;0.60;;;;;;;21.57;67.41;99374.69;5094442;28;20044;-62
2023/08/25 03:58:43;;;;;;;1.58;1.08;;;;;;;21.58;67.34;99376.34;5094523;28;20046;-62
2023/08/25 04:01:12;;;;;;;1.30;1.08;;;;;;;21.59;67.62;99381.50;5093674;28;20044;-62
2023/08/25 04:03:43;;;;;;;1.35;1.25;;;;;;;21.59;67.75;99378.91;5093535;28;20382;-62
2023/08/25 04:06:12;;;;;;;1.05;0.90;;;;;;;21.57;68.11;99375.50;5093492;28;20032;-62
2023/08/25 04:08:40;;;;;;;0.80;0.68;;;;;;;21.55;67.80;99363.50;5093188;28;20036;-62
2023/08/25 04:11:09;;;;;;;0.50;0.50;;;;;;;21.57;67.53;99359.09;5093243;28;20048;-62
2023/08/25 04:13:38;;;;;;;3.45;1.00;;;;;;;21.55;67.31;99350.53;5093194;28;20036;-62
2023/08/25 04:16:07;;;;;;;1.08;0.98;;;;;;;21.56;67.36;99342.69;5094258;28;20040;-62
2023/08/25 04:18:36;;;;;;;1.65;1.00;;;;;;;21.55;67.46;99358.31;5110299;28;20036;-62
2023/08/25 04:21:06;;;;;;;0.68;0.68;;;;;;;21.46;68.52;99367.44;5093023;28;20040;-62
2023/08/25 04:23:37;;;;;;;1.27;1.17;;;;;;;21.45;68.62;99364.91;5093018;28;20510;-62
2023/08/25 04:26:06;;;;;;;2.20;0.82;;;;;;;21.44;68.22;99360.63;5092922;28;20040;-62
2023/08/25 04:28:35;;;;;;;1.10;1.00;;;;;;;21.40;68.12;99354.75;5092874;28;20040;-62
2023/08/25 04:31:04;;;;;;;1.90;1.35;;;;;;;21.43;68.20;99348.56;5093182;28;20063;-62
2023/08/25 04:33:37;;;;;;;1.40;1.13;;;;;;;21.45;68.29;99349.34;5094332;28;20052;-62
2023/08/25 04:36:13;;;;;;;0.55;0.55;;;;;;;21.45;68.29;99339.75;5093088;28;20056;-62
2023/08/25 04:38:42;;;;;;;0.68;0.68;;;;;;;21.42;67.97;99339.09;5093102;28;20051;-62
2023/08/25 04:41:11;;;;;;;;;;;;;;;21.44;68.23;99342.44;5094259;28;20033;-62
2023/08/25 04:43:40;;;;;;;3.50;1.88;;;;;;;21.36;68.68;99338.47;5109692;28;20401;-62
2023/08/25 04:46:12;;;;;;;0.73;0.73;;;;;;;21.45;69.12;99346.72;5092558;28;20035;-62
2023/08/25 04:48:46;;;;;;;1.40;0.82;;;;;;;21.45;68.61;99333.75;5092919;28;20052;-62
2023/08/25 04:51:18;;;;;;;0.85;0.82;;;;;;;21.47;68.55;99326.72;5093406;28;20048;-62
2023/08/25 04:53:47;;;;;;;1.48;1.13;;;;;;;21.58;68.48;99319.22;5092916;28;20050;-62
2023/08/25 04:56:18;;;;;;;0.88;0.82;;;;;;;21.55;68.82;99332.34;5094278;28;20050;-62
2023/08/25 04:58:48;;;;;;;1.17;1.08;;;;;;;21.57;68.97;99317.53;5092416;28;20075;-62
2023/08/25 05:01:17;;;;;;;1.40;0.88;;;;;;;21.63;69.14;99323.25;5092458;28;20379;-62
2023/08/25 05:03:48;;;;;;;1.05;0.98;;;;;;;21.72;69.59;99329.72;5093643;28;20055;-62
2023/08/25 05:06:20;;;;;;;1.15;0.90;;;;;;;21.76;70.24;99355.47;5095508;28;20052;-62
2023/08/25 05:08:48;;;;;;;3.33;1.23;;;;;;;21.75;70.80;99359.00;5099504;28;20070;-62
2023/08/25 05:11:18;;;;;;;1.17;0.90;;;;;;;21.68;71.55;99341.19;5099083;28;20044;-62
2023/08/25 05:13:47;;;;;;;1.75;1.50;;;;;;;21.69;71.69;99353.28;5100267;28;20039;-62
2023/08/25 05:16:18;;;;;;;0.70;0.70;;;;;;;21.70;72.08;99366.19;5100877;28;20474;-62
2023/08/25 05:18:58;;;;;;;1.15;0.98;;;;;;;21.72;72.56;99347.91;5100507;28;20055;-62
2023/08/25 05:21:28;;;;;;;0.82;0.80;;;;;;;21.75;72.46;99353.81;5098994;28;20044;-62
2023/08/25 05:24:18;;;;;;;1.23;1.00;;;;;;;21.82;72.52;99344.78;5100547;28;20071;-62
2023/08/25 05:26:51;;;;;;;1.83;1.70;;;;;;;21.92;72.15;99337.38;5099231;28;20040;-61
2023/08/25 05:29:21;;;;;;;1.27;1.17;;;;;;;22.02;72.01;99335.97;5100163;28;20122;-62
2023/08/25 05:31:50;;;;;;;0.65;0.65;;;;;;;22.09;71.88;99326.94;5098946;28;20048;-62
2023/08/25 05:34:31;;;;;;;0.80;0.80;;;;;;;22.22;71.74;99309.72;5100436;28;20071;-62
2023/08/25 05:37:08;;;;;;;1.80;1.63;;;;;;;22.31;71.02;99317.06;5099103;28;20101;-63
2023/08/25 05:39:36;;;;;;;1.13;1.02;;;;;;;22.33;70.77;99325.63;5100031;28;20055;-62
2023/08/25 05:42:07;;;;;;;0.70;0.70;;;;;;;22.36;70.83;99329.81;5098991;28;20537;-62
2023/08/25 05:44:37;;;;;;;1.08;1.00;;;;;;;22.33;70.67;99324.78;5100053;28;20130;-63
2023/08/25 05:47:08;;;;;;;0.60;0.60;;;;;;;22.38;70.25;99330.56;5099938;28;20048;-62
2023/08/25 05:49:37;;;;;;;0.60;0.60;;;;;;;22.46;70.61;99339.63;5098824;28;20036;-62
2023/08/25 05:52:07;;;;;;;1.23;0.88;;;;;;;22.59;69.95;99348.44;5115519;28;20044;-62
2023/08/25 05:54:38;;;;;;;1.48;0.98;;;;;;;22.82;69.79;99364.59;5099620;28;20055;-61
2023/08/25 05:57:08;;;;;;;2.75;1.63;;;;;;;22.99;69.02;99360.09;5095768;28;20040;-63
2023/08/25 05:59:37;;;;;;;1.23;0.98;;;;;;;23.06;68.54;99363.22;5099293;28;20490;-62
2023/08/25 06:02:06;;;;;;;0.82;0.82;;;;;;;23.01;67.92;99365.22;5100067;28;20405;-62
2023/08/25 06:04:35;;;;;;;1.75;1.13;;;;;;;23.01;67.63;99376.47;5100138;28;20485;-61
2023/08/25 06:07:04;;;;;;;8.30;4.03;;;;;;;22.99;67.41;99377.47;5099038;28;20494;-64
2023/08/25 06:09:34;;;;;;;0.83;0.80;;;;;;;22.98;67.30;99388.84;5079864;28;20063;-62
2023/08/25 06:12:03;;;;;;;1.13;0.93;;;;;;;23.07;67.15;99383.94;5079762;28;20346;-61
2023/08/25 06:14:32;;;;;;;1.95;1.60;;;;;;;23.27;66.42;99378.44;5079446;28;20131;-61
2023/08/25 06:17:01;;;;;;;2.20;1.25;;;;;;;23.43;66.04;99381.03;5079542;28;20127;-62
2023/08/25 06:19:30;;;;;;;2.08;1.35;;;;;;;23.57;65.47;99396.72;5094606;28;20406;-61
2023/08/25 06:21:59;;;;;;;4.10;2.33;;;;;;;23.62;65.37;99399.88;5094613;28;20134;-62
2023/08/25 06:24:28;;;;;;;4.82;2.72;;;;;;;23.60;65.34;99401.75;5094438;28;20090;-63
2023/08/25 06:26:59;;;;;;;1.83;1.38;;;;;;;23.73;64.87;99392.25;5086158;28;20093;-63
2023/08/25 06:29:28;;;;;;;1.05;0.95;;;;;;;23.88;64.89;99391.38;5095291;28;20119;-62
2023/08/25 06:31:57;;;;;;;2.78;1.38;;;;;;;24.02;64.97;99393.97;5096636;28;20028;-62
2023/08/25 06:34:27;;;;;;;;;;;;;;;24.16;64.74;99395.81;5093121;28;20163;-63
2023/08/25 06:36:57;;;;;;;0.98;0.95;;;;;;;24.29;64.21;99401.94;5096475;28;20329;-62
2023/08/25 06:39:26;;;;;;;1.30;1.20;;;;;;;24.45;64.01;99401.84;5096378;28;20399;-62
2023/08/25 06:41:55;;;;;;;1.48;1.38;;;;;;;24.57;64.15;99390.66;5096055;28;20047;-63
2023/08/25 06:44:27;;;;;;;1.73;1.10;;;;;;;24.72;63.98;99397.50;5093778;28;20044;-62
2023/08/25 06:46:56;;;;;;;1.35;1.25;;;;;;;24.79;63.71;99401.44;5094657;28;20040;-62
2023/08/25 06:49:27;;;;;;;2.13;1.55;;;;;;;24.92;63.78;99402.34;5095988;28;20123;-62
2023/08/25 06:51:56;;;;;;;2.08;1.08;;;;;;;25.13;64.03;99411.41;5095800;28;20052;-62
2023/08/25 06:54:26;;;;;;;2.45;1.63;;;;;;;25.15;63.65;99406.91;5094625;28;20052;-65
2023/08/25 06:56:55;;;;;;;1.05;0.80;;;;;;;24.94;63.86;99407.47;5096043;28;20047;-62
2023/08/25 06:59:24;;;;;;;0.82;0.82;;;;;;;24.58;64.45;99397.53;5094468;28;20032;-63
2023/08/25 07:01:54;;;;;;;1.08;0.80;;;;;;;24.41;64.89;99389.91;5098961;28;20480;-63
2023/08/25 07:04:23;;;;;;;1.67;0.73;;;;;;;24.34;65.20;99393.81;5095643;28;20059;-63
2023/08/25 07:06:52;;;;;;;0.80;0.80;;;;;;;24.48;65.19;99385.97;5095617;28;20102;-62
2023/08/25 07:09:21;;;;;;;0.65;0.65;;;;;;;24.59;65.33;99394.00;5095898;28;20063;-64
2023/08/25 07:11:50;;;;;;;1.17;1.08;;;;;;;24.70;65.21;99395.91;5094401;28;20127;-63
2023/08/25 07:14:18;;;;;;;2.00;1.00;;;;;;;24.91;65.11;99379.75;5095544;28;20123;-63
2023/08/25 07:16:47;;;;;;;1.35;1.05;;;;;;;25.09;64.58;99378.59;5095666;28;20119;-64
2023/08/25 07:19:18;;;;;;;;;;;;;;;25.25;64.23;99379.25;5094357;28;20056;-62
2023/08/25 07:21:46;;;;;;;1.13;1.02;;;;;;;25.38;63.95;99373.22;5095565;28;19927;-63
2023/08/25 07:24:16;;;;;;;1.65;1.02;;;;;;;25.49;64.04;99357.69;5094474;28;20449;-63
2023/08/25 07:26:44;;;;;;;1.45;1.17;;;;;;;25.54;63.96;99358.22;5095300;28;20076;-63
2023/08/25 07:29:13;;;;;;;10.60;1.70;;;;;;;25.59;63.78;99350.91;5094853;28;20070;-63
2023/08/25 07:31:42;;;;;;;1.42;1.27;;;;;;;25.60;64.20;99366.47;5095108;28;20032;-63
2023/08/25 07:34:11;;;;;;;1.30;1.20;;;;;;;25.56;63.78;99377.25;5094349;28;20423;-64
2023/08/25 07:36:43;;;;;;;0.88;0.77;;;;;;;25.61;63.91;99391.69;5095093;28;20036;-63
2023/08/25 07:39:12;;;;;;;1.60;1.20;;;;;;;25.67;63.84;99385.22;5094962;28;20048;-62
2023/08/25 07:41:40;;;;;;;1.33;1.10;;;;;;;25.67;64.05;99375.63;5094876;28;20044;-63
2023/08/25 07:44:09;;;;;;;1.65;1.48;;;;;;;25.75;63.91;99372.47;5093269;28;20371;-65
2023/08/25 07:46:39;;;;;;;1.17;1.02;;;;;;;25.80;63.87;99371.22;5094804;28;20463;-64
2023/08/25 07:49:08;;;;;;;1.67;1.13;;;;;;;25.77;63.67;99368.00;5094778;28;20058;-63
2023/08/25 07:51:37;;;;;;;1.67;1.25;;;;;;;25.72;63.81;99377.91;5094502;28;20131;-63
2023/08/25 07:54:09;;;;;;;1.35;1.25;;;;;;;25.84;63.30;99382.31;5089343;28;20044;-64
2023/08/25 07:56:39;;;;;;;3.33;2.28;;;;;;;25.96;63.05;99371.03;5093799;28;20047;-63
2023/08/25 07:59:09;;;;;;;1.10;1.00;;;;;;;26.11;62.83;99367.38;5093603;28;20543;-62
2023/08/25 08:01:38;;;;;;;3.40;2.22;;;;;;;26.22;62.87;99367.47;5094607;28;20048;-63
2023/08/25 08:04:07;;;;;;;1.88;1.08;;;;;;;26.36;62.82;99364.72;5094074;28;20040;-67
2023/08/25 08:06:37;;;;;;;2.83;1.98;;;;;;;26.51;62.89;99366.25;5093935;28;20123;-63
2023/08/25 08:09:06;;;;;;;1.77;1.27;;;;;;;26.47;62.23;99362.19;5094286;28;20044;-64
2023/08/25 08:11:37;;;;;;;1.42;1.27;;;;;;;26.48;62.35;99358.63;5093944;28;20115;-63
2023/08/25 08:14:06;;;;;;;2.15;1.48;;;;;;;26.55;62.25;99352.00;5093766;28;20044;-63
2023/08/25 08:16:35;;;;;;;0.90;0.90;;;;;;;26.55;62.19;99352.00;5094493;28;20379;-63
2023/08/25 08:19:06;;;;;;;1.08;0.85;;;;;;;26.58;62.55;99359.66;5094548;28;20040;-62
2023/08/25 08:21:35;;;;;;;1.65;1.20;;;;;;;26.55;62.45;99344.16;5094118;28;20040;-63
2023/08/25 08:24:04;;;;;;;2.28;1.25;;;;;;;26.60;62.26;99352.50;5093104;28;20052;-63
2023/08/25 08:26:33;;;;;;;1.20;1.10;;;;;;;26.68;62.62;99356.38;5094292;28;20409;-63
2023/08/25 08:29:04;;;;;;;2.88;1.88;;;;;;;26.86;62.37;99368.16;5093899;28;20075;-64
2023/08/25 08:31:32;;;;;;;1.58;1.10;;;;;;;26.85;61.82;99369.13;5094851;28;20131;-63
2023/08/25 08:34:01;;;;;;;2.55;0.98;;;;;;;27.06;62.09;99370.19;5092862;28;20047;-62
2023/08/25 08:36:30;;;;;;;1.02;0.93;;;;;;;27.19;62.21;99371.78;5098839;28;20039;-63
2023/08/25 08:39:02;;;;;;;2.10;1.73;;;;;;;27.31;61.76;99359.53;5114258;28;20036;-62
2023/08/25 08:41:33;;;;;;;1.38;1.08;;;;;;;27.45;61.74;99361.19;5113483;28;20054;-63
2023/08/25 08:44:08;;;;;;;1.33;1.10;;;;;;;27.57;61.38;99358.44;5114496;28;20401;-63
2023/08/25 08:46:41;;;;;;;1.20;1.10;;;;;;;27.69;61.07;99360.16;5105381;28;20044;-63
2023/08/25 08:49:11;;;;;;;7.85;2.40;;;;;;;27.78;60.58;99364.72;5094069;28;20466;-63
2023/08/25 08:51:42;;;;;;;1.67;1.58;;;;;;;27.78;60.11;99364.72;5093555;28;20044;-63
2023/08/25 08:54:12;;;;;;;1.45;1.33;;;;;;;27.99;60.22;99367.47;5094084;28;20576;-62
2023/08/25 08:56:42;;;;;;;1.45;1.15;;;;;;;28.22;60.37;99368.34;5092582;28;20058;-62
2023/08/25 08:59:12;;;;;;;1.05;0.98;;;;;;;28.41;59.95;99364.13;5092611;28;20063;-62
2023/08/25 09:01:42;;;;;;;1.20;1.10;;;;;;;28.49;59.24;99366.16;5093685;28;20402;-62
2023/08/25 09:04:12;;;;;;;2.33;1.55;;;;;;;28.44;58.38;99363.91;5091601;28;20051;-62
2023/08/25 09:06:43;;;;;;;2.13;1.70;;;;;;;28.51;58.47;99359.00;5093944;28;20149;-63
2023/08/25 09:09:13;;;;;;;0.70;0.70;;;;;;;28.58;58.38;99365.44;5092530;28;20067;-63
2023/08/25 09:11:42;;;;;;;3.58;3.03;;;;;;;28.65;57.81;99369.25;5087610;28;20044;-63
2023/08/25 09:14:13;;;;;;;1.70;1.55;;;;;;;28.70;57.22;99369.72;5091443;28;20048;-63
2023/08/25 09:16:42;;;;;;;0.88;0.88;;;;;;;28.74;56.98;99371.19;5088437;28;20052;-63
2023/08/25 09:19:16;;;;;;;1.45;1.35;;;;;;;28.87;56.79;99358.69;5092674;28;20044;-63
2023/08/25 09:21:46;;;;;;;0.93;0.80;;;;;;;28.90;56.53;99366.34;5093704;28;20068;-63
2023/08/25 09:24:19;;;;;;;1.15;1.02;;;;;;;28.78;56.08;99369.97;5093761;28;20048;-63
2023/08/25 09:26:48;;;;;;;0.95;0.80;;;;;;;28.91;56.17;99375.06;5092775;28;20394;-63
2023/08/25 09:29:22;;;;;;;1.05;0.95;;;;;;;28.90;55.84;99376.88;5093536;28;20043;-63
2023/08/25 09:31:52;;;;;;;0.90;0.80;;;;;;;29.00;56.46;99379.56;5092912;28;20044;-62
2023/08/25 09:34:21;;;;;;;5.65;1.20;;;;;;;29.13;56.11;99377.63;5093539;28;20036;-62
2023/08/25 09:36:54;;;;;;;1.02;0.95;;;;;;;29.25;55.75;99381.09;5092522;28;20036;-62
2023/08/25 09:39:24;;;;;;;0.55;0.55;;;;;;;29.38;55.05;99382.56;5093268;28;20044;-62
2023/08/25 09:41:53;;;;;;;3.30;1.42;;;;;;;29.49;54.73;99374.59;5091839;28;20036;-62
2023/08/25 09:44:26;;;;;;;0.85;0.85;;;;;;;29.34;54.12;99375.91;5093182;28;20040;-63
2023/08/25 09:46:57;;;;;;;0.65;0.65;;;;;;;29.31;54.05;99376.16;5088424;28;20142;-62
2023/08/25 09:49:39;;;;;;;1.13;1.02;;;;;;;29.45;54.01;99370.56;5095997;28;20051;-62
2023/08/25 09:52:08;;;;;;;0.50;0.50;;;;;;;29.62;53.91;99363.91;5093246;28;20056;-62
2023/08/25 09:54:37;;;;;;;0.85;0.80;;;;;;;29.73;53.98;99356.75;5097203;28;20134;-63
2023/08/25 09:57:06;;;;;;;1.02;0.93;;;;;;;29.77;53.97;99367.91;5099520;28;20028;-62
2023/08/25 09:59:36;;;;;;;;;;;;;;;29.85;53.29;99365.44;5108683;28;20044;-62
2023/08/25 10:02:05;;;;;;;1.27;0.73;;;;;;;29.71;52.58;99358.69;5097192;28;19919;-63
2023/08/25 10:04:33;;;;;;;;;;;;;;;29.76;52.63;99353.03;5115142;28;20417;-63
2023/08/25 10:07:05;;;;;;;2.72;1.35;;;;;;;29.86;52.59;99340.81;5094251;28;19959;-62
2023/08/25 10:09:34;;;;;;;0.98;0.88;;;;;;;29.94;52.38;99335.72;5092787;28;20051;-63
2023/08/25 10:12:07;;;;;;;0.63;0.63;;;;;;;29.98;51.28;99331.84;5093748;28;20044;-63
2023/08/25 10:14:41;;;;;;;0.75;0.75;;;;;;;30.09;51.19;99331.75;5096885;28;20040;-63
2023/08/25 10:17:15;;;;;;;1.20;0.80;;;;;;;30.20;51.68;99328.19;5076595;28;20441;-63
2023/08/25 10:19:45;;;;;;;1.98;1.02;;;;;;;30.20;51.16;99318.50;5092362;28;20048;-63
2023/08/25 10:22:15;;;;;;;0.82;0.82;;;;;;;30.19;51.11;99321.25;5096774;28;20066;-63
2023/08/25 10:24:46;;;;;;;0.60;0.60;;;;;;;30.49;51.97;99324.72;5096479;28;20050;-63
2023/08/25 10:27:15;;;;;;;1.30;1.20;;;;;;;30.65;52.12;99318.06;5096401;28;20048;-63
2023/08/25 10:29:45;;;;;;;0.75;0.70;;;;;;;30.75;51.43;99324.19;5093544;28;20054;-64
2023/08/25 10:32:15;;;;;;;1.50;1.15;;;;;;;30.65;50.55;99334.72;5096086;28;20043;-64
2023/08/25 10:34:44;;;;;;;;;;;;;;;30.69;50.43;99332.66;5096612;28;20036;-64
2023/08/25 10:37:23;;;;;;;0.60;0.60;;;;;;;30.77;49.53;99327.50;5094193;28;19922;-63
2023/08/25 10:39:54;;;;;;;0.75;0.73;;;;;;;30.86;49.53;99324.88;5088519;28;20048;-63
2023/08/25 10:42:29;;;;;;;0.57;0.57;;;;;;;30.85;48.73;99325.03;5095369;28;20044;-63
2023/08/25 10:45:06;;;;;;;0.63;0.60;;;;;;;30.96;48.66;99328.41;5096455;28;20071;-63
2023/08/25 10:47:44;;;;;;;0.70;0.70;;;;;;;30.97;48.64;99324.81;5092453;28;20093;-63
2023/08/25 10:50:15;;;;;;;0.73;0.73;;;;;;;30.87;48.86;99317.81;5092302;28;20830;-64
2023/08/25 10:52:44;;;;;;;1.27;0.88;;;;;;;30.89;48.78;99315.91;5093347;28;20131;-63
2023/08/25 10:55:29;;;;;;;0.70;0.70;;;;;;;30.93;48.23;99318.13;5095804;28;20044;-62
2023/08/25 10:58:06;;;;;;;1.17;1.08;;;;;;;31.09;48.62;99312.31;5104185;28;20043;-62
2023/08/25 11:00:43;;;;;;;0.63;0.63;;;;;;;31.08;48.53;99313.25;5105535;28;20031;-63
2023/08/25 11:03:12;;;;;;;0.68;0.68;;;;;;;31.18;47.93;99308.81;5116124;28;20043;-62
2023/08/25 11:05:44;;;;;;;0.70;0.70;;;;;;;31.33;47.95;99304.78;5115044;28;20067;-63
2023/08/25 11:08:28;;;;;;;1.98;1.38;;;;;;;31.43;47.37;99308.28;5101738;28;20036;-62
2023/08/25 11:11:09;;;;;;;1.38;0.98;;;;;;;31.58;47.17;99309.47;5095486;28;20037;-63
2023/08/25 11:13:39;;;;;;;2.95;1.58;;;;;;;31.69;46.38;99301.41;5095444;28;20501;-62
2023/08/25 11:16:11;;;;;;;0.63;0.63;;;;;;;31.74;46.65;99299.16;5095547;28;20058;-63
2023/08/25 11:18:41;;;;;;;1.23;1.08;;;;;;;31.70;46.47;99303.03;5094564;28;20055;-63
2023/08/25 11:21:11;;;;;;;0.63;0.63;;;;;;;31.77;46.02;99298.00;5095332;28;20040;-63
2023/08/25 11:23:42;;;;;;;0.50;0.50;;;;;;;31.69;45.83;99293.47;5095265;28;20124;-63
2023/08/25 11:26:16;;;;;;;0.85;0.60;;;;;;;31.80;45.00;99292.44;5092547;28;20567;-62
2023/08/25 11:28:49;;;;;;;4.28;3.25;;;;;;;31.88;45.24;99294.38;5090742;28;20048;-62
2023/08/25 11:31:21;;;;;;;1.88;1.48;;;;;;;31.92;45.33;99296.56;5090751;28;20767;-63
2023/08/25 11:33:51;;;;;;;0.85;0.80;;;;;;;32.12;45.23;99284.13;5095891;28;20035;-63
2023/08/25 11:36:24;;;;;;;1.00;0.90;;;;;;;32.34;45.25;99296.94;5093500;28;20040;-63
2023/08/25 11:38:53;;;;;;;0.68;0.68;;;;;;;32.41;45.27;99292.75;5095126;28;20048;-62
2023/08/25 11:41:23;;;;;;;;;;;;;;;32.46;44.30;99279.91;5095312;28;20044;-62
2023/08/25 11:43:52;;;;;;;0.60;0.60;;;;;;;32.50;44.72;99278.66;5093802;28;19955;-63
2023/08/25 11:46:23;;;;;;;0.57;0.57;;;;;;;32.45;44.46;99278.22;5094848;28;20052;-62
2023/08/25 11:48:53;;;;;;;0.50;0.50;;;;;;;32.48;44.62;99275.31;5095709;28;20039;-63